Time;durP1;ratioP1;P1;durP2;ratioP2;P2;SDS_P1;SDS_P2;PMS_P1;PMS_P2;Temp;Humidity;BMP_temperature;BMP_pressure;BME280_temperature;BME280_humidity;BME280_pressure;Samples;Min_cycle;Max_cycle;Signal;HPM_P1;HPM_P2
2021/07/14 00:01:57;;;;;;;49.25;37.58;;;18.50;99.90;;;;;;5008152;28;20121;-82
2021/07/14 00:04:23;;;;;;;43.08;33.63;;;18.40;99.90;;;;;;4993338;28;20097;-82
2021/07/14 00:06:48;;;;;;;48.50;37.78;;;18.30;99.90;;;;;;5008388;28;20121;-82
2021/07/14 00:09:14;;;;;;;44.45;37.17;;;18.40;99.90;;;;;;4993219;28;20033;-82
2021/07/14 00:11:43;;;;;;;48.78;38.08;;;18.30;99.90;;;;;;4992572;28;20054;-82
2021/07/14 00:17:11;;;;;;;55.65;44.28;;;18.50;99.90;;;;;;5012515;28;20113;-82
2021/07/14 00:22:21;;;;;;;59.30;44.75;;;18.50;99.90;;;;;;5012423;28;20168;-82
2021/07/14 00:24:47;;;;;;;52.35;39.78;;;18.50;99.90;;;;;;5004218;28;20059;-82
2021/07/14 00:27:13;;;;;;;49.03;37.75;;;18.50;99.90;;;;;;5007785;28;20030;-82
2021/07/14 00:29:50;;;;;;;60.20;44.13;;;18.50;99.90;;;;;;5007795;28;20030;-82
2021/07/14 00:32:16;;;;;;;60.17;45.15;;;18.60;99.90;;;;;;5007519;28;20509;-82
2021/07/14 00:34:41;;;;;;;59.30;44.40;;;18.60;99.90;;;;;;4993552;28;20061;-82
2021/07/14 00:37:07;;;;;;;55.28;39.38;;;18.60;99.90;;;;;;5022292;28;20034;-82
2021/07/14 00:39:32;;;;;;;61.30;45.45;;;18.50;99.90;;;;;;5010727;28;20072;-82
2021/07/14 00:41:58;;;;;;;49.72;38.97;;;18.50;99.90;;;;;;5011887;28;20030;-82
2021/07/14 00:44:24;;;;;;;50.47;37.08;;;18.50;99.90;;;;;;5012045;28;20022;-82
2021/07/14 00:46:53;;;;;;;45.15;36.17;;;18.50;99.90;;;;;;4995202;28;20513;-82
2021/07/14 00:49:19;;;;;;;47.35;37.70;;;18.40;99.90;;;;;;4991170;28;20034;-82
2021/07/14 00:51:46;;;;;;;54.17;39.33;;;18.30;99.90;;;;;;5009400;28;20555;-82
2021/07/14 00:54:12;;;;;;;52.90;40.05;;;18.40;99.90;;;;;;5010457;28;20034;-82
2021/07/14 00:56:39;;;;;;;56.03;40.92;;;18.40;99.90;;;;;;4998168;28;20084;-82
2021/07/14 00:59:05;;;;;;;54.15;42.03;;;18.40;99.90;;;;;;4992100;28;20054;-82
2021/07/14 01:01:31;;;;;;;51.00;39.70;;;18.50;99.90;;;;;;5007090;28;20019;-82
2021/07/14 01:04:20;;;;;;;54.05;36.95;;;18.40;99.90;;;;;;4992083;28;20014;-82
2021/07/14 01:06:56;;;;;;;44.65;34.85;;;18.40;99.90;;;;;;5000947;28;20022;-82
2021/07/14 01:09:46;;;;;;;47.50;36.45;;;18.30;99.90;;;;;;5011872;28;20082;-82
2021/07/14 01:12:30;;;;;;;57.13;39.58;;;18.30;99.90;;;;;;5026814;28;20026;-82
2021/07/14 01:15:08;;;;;;;40.15;33.10;;;18.30;99.90;;;;;;5011691;28;20072;-82
2021/07/14 01:17:40;;;;;;;45.53;36.63;;;18.30;99.90;;;;;;4998562;28;20120;-82
2021/07/14 01:20:36;;;;;;;49.17;37.35;;;18.20;99.90;;;;;;4992071;28;20027;-82
2021/07/14 01:23:07;;;;;;;43.53;35.63;;;18.20;99.90;;;;;;5006809;28;20030;-82
2021/07/14 01:25:49;;;;;;;58.10;42.67;;;18.20;99.90;;;;;;4996272;28;20032;-82
2021/07/14 01:28:16;;;;;;;74.38;48.22;;;18.20;99.90;;;;;;5006249;28;20034;-82
2021/07/14 01:30:43;;;;;;;74.80;49.13;;;18.10;99.90;;;;;;5015794;28;20026;-82
2021/07/14 01:33:11;;;;;;;63.05;44.97;;;18.10;99.90;;;;;;5014224;28;20434;-82
2021/07/14 01:35:41;;;;;;;64.45;47.22;;;18.10;99.90;;;;;;5015544;28;20467;-82
2021/07/14 01:38:11;;;;;;;69.68;47.50;;;18.10;99.90;;;;;;5015701;28;20029;-82
2021/07/14 01:40:38;;;;;;;56.88;42.67;;;18.10;99.90;;;;;;5014184;28;20498;-82
2021/07/14 01:43:05;;;;;;;78.22;52.88;;;18.10;99.90;;;;;;5015153;28;20037;-82
2021/07/14 01:45:34;;;;;;;63.45;44.13;;;18.10;99.90;;;;;;5015397;28;20072;-82
2021/07/14 01:48:02;;;;;;;68.47;46.92;;;18.10;99.90;;;;;;5015504;28;20266;-82
2021/07/14 01:50:30;;;;;;;81.15;48.47;;;18.10;99.90;;;;;;5014119;28;20052;-82
2021/07/14 01:52:56;;;;;;;62.40;44.40;;;18.10;99.90;;;;;;5015127;28;20034;-82
2021/07/14 01:55:23;;;;;;;55.20;38.90;;;18.00;99.90;;;;;;5015213;28;20034;-82
2021/07/14 01:57:52;;;;;;;48.25;35.22;;;18.00;99.90;;;;;;5013811;28;20390;-82
2021/07/14 02:00:18;;;;;;;57.25;37.45;;;17.90;99.90;;;;;;5013808;28;20022;-82
2021/07/14 02:02:55;;;;;;;60.05;43.33;;;17.90;99.90;;;;;;5014815;28;20026;-82
2021/07/14 02:05:21;;;;;;;50.22;36.78;;;17.70;99.90;;;;;;5015142;28;20024;-82
2021/07/14 02:07:47;;;;;;;64.63;42.72;;;17.70;99.90;;;;;;5015028;28;20026;-82
2021/07/14 02:10:14;;;;;;;66.85;45.38;;;17.70;99.90;;;;;;5013437;28;20080;-82
2021/07/14 02:12:43;;;;;;;57.83;41.22;;;17.70;99.90;;;;;;5014704;28;20061;-82
2021/07/14 02:15:10;;;;;;;70.93;45.90;;;17.70;99.90;;;;;;5013448;28;20030;-82
2021/07/14 02:17:46;;;;;;;73.13;46.72;;;17.70;99.90;;;;;;5013554;28;20061;-82
2021/07/14 02:20:15;;;;;;;76.03;51.13;;;17.70;99.90;;;;;;5030148;28;20029;-82
2021/07/14 02:22:41;;;;;;;72.78;47.50;;;17.70;99.90;;;;;;5013190;28;20084;-82
2021/07/14 02:25:08;;;;;;;73.90;49.58;;;17.80;99.90;;;;;;5014505;28;20029;-82
2021/07/14 02:27:33;;;;;;;86.13;51.72;;;17.80;99.90;;;;;;5013371;28;20116;-82
2021/07/14 02:29:59;;;;;;;75.72;47.90;;;17.80;99.90;;;;;;5013335;28;20128;-82
2021/07/14 02:32:25;;;;;;;69.00;45.55;;;17.90;99.90;;;;;;5029520;28;20026;-82
2021/07/14 02:34:54;;;;;;;82.47;50.13;;;17.90;99.90;;;;;;5013075;28;20030;-82
2021/07/14 02:37:36;;;;;;;92.30;52.22;;;17.90;99.90;;;;;;5014356;28;20108;-82
2021/07/14 02:40:04;;;;;;;82.32;50.45;;;17.90;99.90;;;;;;5014526;28;20042;-82
2021/07/14 02:42:32;;;;;;;93.05;55.20;;;17.80;99.90;;;;;;5014075;28;20029;-82
2021/07/14 02:45:01;;;;;;;84.38;53.50;;;17.80;99.90;;;;;;5012955;28;20087;-82
2021/07/14 02:47:35;;;;;;;83.20;50.95;;;17.80;99.90;;;;;;5013106;28;20026;-82
2021/07/14 02:50:05;;;;;;;76.07;48.05;;;17.70;99.90;;;;;;5013024;28;20056;-82
2021/07/14 02:52:32;;;;;;;78.93;49.08;;;17.70;99.90;;;;;;5014104;28;20080;-82
2021/07/14 02:55:01;;;;;;;77.18;46.38;;;17.60;99.90;;;;;;5014165;28;20025;-82
2021/07/14 02:57:28;;;;;;;86.13;48.88;;;17.50;99.90;;;;;;5012741;28;20112;-82
2021/07/14 02:59:55;;;;;;;75.97;50.28;;;17.60;99.90;;;;;;5012770;28;20450;-82
2021/07/14 03:02:22;;;;;;;70.55;43.17;;;17.70;99.90;;;;;;5012291;28;20482;-82
2021/07/14 03:04:51;;;;;;;85.63;48.33;;;17.70;99.90;;;;;;5013903;28;20026;-82
2021/07/14 03:07:21;;;;;;;78.20;45.08;;;17.70;99.90;;;;;;5013989;28;20534;-82
2021/07/14 03:09:47;;;;;;;73.45;43.67;;;17.80;99.90;;;;;;5013746;28;20502;-82
2021/07/14 03:12:16;;;;;;;68.80;41.20;;;17.70;99.90;;;;;;5013717;28;20517;-82
2021/07/14 03:14:49;;;;;;;65.60;39.90;;;17.80;99.90;;;;;;5013782;28;20401;-82
2021/07/14 03:17:17;;;;;;;84.70;49.58;;;17.70;99.90;;;;;;5013673;28;20088;-82
2021/07/14 03:19:44;;;;;;;75.43;42.63;;;17.80;99.90;;;;;;5013650;28;20033;-82
2021/07/14 03:22:10;;;;;;;56.80;38.42;;;17.80;99.90;;;;;;5012041;28;20510;-82
2021/07/14 03:24:36;;;;;;;74.38;43.28;;;17.70;99.90;;;;;;5013548;28;20467;-82
2021/07/14 03:27:06;;;;;;;51.80;34.20;;;17.70;99.90;;;;;;5013650;28;20033;-82
2021/07/14 03:29:33;;;;;;;64.38;41.15;;;17.70;99.90;;;;;;5013689;28;20055;-82
2021/07/14 03:32:01;;;;;;;66.47;37.90;;;17.70;99.90;;;;;;5028436;28;20030;-82
2021/07/14 03:34:27;;;;;;;60.78;38.53;;;17.70;99.90;;;;;;5013324;28;20034;-81
2021/07/14 03:36:54;;;;;;;57.95;34.70;;;17.70;99.90;;;;;;5013416;28;20092;-82
2021/07/14 03:39:20;;;;;;;55.05;34.67;;;17.80;99.90;;;;;;5012054;28;20022;-82
2021/07/14 03:41:48;;;;;;;39.15;29.38;;;17.80;99.90;;;;;;5013177;28;20530;-82
2021/07/14 03:44:17;;;;;;;66.85;40.10;;;17.80;99.90;;;;;;5012010;28;20041;-82
2021/07/14 03:46:43;;;;;;;67.80;40.40;;;17.80;99.90;;;;;;5011352;28;20498;-82
2021/07/14 03:49:10;;;;;;;74.63;43.08;;;17.90;99.90;;;;;;5028614;28;20053;-82
2021/07/14 03:51:37;;;;;;;70.00;40.35;;;17.90;99.90;;;;;;5011642;28;20505;-82
2021/07/14 03:54:02;;;;;;;78.78;43.47;;;18.00;99.90;;;;;;5011781;28;20038;-82
2021/07/14 03:56:29;;;;;;;79.47;42.08;;;18.00;99.90;;;;;;5012998;28;20391;-82
2021/07/14 03:58:56;;;;;;;71.03;41.80;;;18.10;99.90;;;;;;5028239;28;20018;-82
2021/07/14 04:01:22;;;;;;;71.55;40.60;;;18.20;99.90;;;;;;5012784;28;20363;-82
2021/07/14 04:03:50;;;;;;;71.60;41.65;;;18.20;99.90;;;;;;5013086;28;20022;-82
2021/07/14 04:06:17;;;;;;;67.75;40.97;;;18.20;99.90;;;;;;5012901;28;20053;-82
2021/07/14 04:08:45;;;;;;;59.85;37.00;;;18.30;99.90;;;;;;5012752;28;20513;-82
2021/07/14 04:11:12;;;;;;;59.45;35.42;;;18.30;99.90;;;;;;5012688;28;20036;-82
2021/07/14 04:13:38;;;;;;;65.20;38.60;;;18.30;99.90;;;;;;5011287;28;20026;-81
2021/07/14 04:16:04;;;;;;;67.40;40.08;;;18.30;99.90;;;;;;5027782;28;20437;-82
2021/07/14 04:18:29;;;;;;;77.55;42.75;;;18.40;99.90;;;;;;5012694;28;20080;-81
2021/07/14 04:20:55;;;;;;;75.85;43.55;;;18.30;99.90;;;;;;5011367;28;20033;-82
2021/07/14 04:23:21;;;;;;;75.32;41.33;;;18.40;99.90;;;;;;5012549;28;20037;-82
2021/07/14 04:25:47;;;;;;;73.13;40.72;;;18.50;99.90;;;;;;5012485;28;20411;-82
2021/07/14 04:28:12;;;;;;;78.10;41.55;;;18.60;99.90;;;;;;5012339;28;20026;-81
2021/07/14 04:30:38;;;;;;;69.28;42.40;;;18.60;99.90;;;;;;5027562;28;20029;-81
2021/07/14 04:33:03;;;;;;;69.25;43.47;;;18.60;99.90;;;;;;5012288;28;20026;-82
2021/07/14 04:35:29;;;;;;;71.32;43.22;;;18.70;99.90;;;;;;5012343;28;20034;-81
2021/07/14 04:37:55;;;;;;;65.40;41.22;;;18.80;99.90;;;;;;5027520;28;20499;-82
2021/07/14 04:40:22;;;;;;;70.65;41.72;;;18.80;99.90;;;;;;5027699;28;20067;-82
2021/07/14 04:42:49;;;;;;;66.72;38.35;;;18.80;99.90;;;;;;5012005;28;20032;-82
2021/07/14 04:45:15;;;;;;;76.25;44.33;;;18.80;99.90;;;;;;5012173;28;20021;-82
2021/07/14 04:47:40;;;;;;;71.63;43.95;;;18.90;99.90;;;;;;5012332;28;20233;-81
2021/07/14 04:50:06;;;;;;;70.53;40.63;;;18.90;99.90;;;;;;5027547;28;20096;-82
2021/07/14 04:52:32;;;;;;;62.80;42.97;;;18.90;99.90;;;;;;5011957;28;20037;-82
2021/07/14 04:54:57;;;;;;;71.35;41.63;;;19.00;99.90;;;;;;5012085;28;20471;-82
2021/07/14 04:57:23;;;;;;;69.68;41.83;;;19.00;99.90;;;;;;5010722;28;20068;-81
2021/07/14 04:59:48;;;;;;;76.28;42.55;;;19.10;99.90;;;;;;5012045;28;20025;-81
2021/07/14 05:02:14;;;;;;;65.78;40.63;;;19.10;99.90;;;;;;5011716;28;20102;-82
2021/07/14 05:04:40;;;;;;;58.53;38.95;;;19.10;99.90;;;;;;5011935;28;20049;-82
2021/07/14 05:07:06;;;;;;;60.28;39.88;;;19.20;99.90;;;;;;5011917;28;20022;-83
2021/07/14 05:09:32;;;;;;;66.72;41.92;;;19.40;99.90;;;;;;5011563;28;20068;-82
2021/07/14 05:11:58;;;;;;;68.53;39.95;;;19.30;99.90;;;;;;5027107;28;20030;-82
2021/07/14 05:14:23;;;;;;;62.25;41.72;;;19.50;99.90;;;;;;5010611;28;20049;-82
2021/07/14 05:16:49;;;;;;;62.35;41.97;;;19.50;99.90;;;;;;5011893;28;20313;-82
2021/07/14 05:19:14;;;;;;;66.38;38.22;;;19.40;99.90;;;;;;5011712;28;20136;-82
2021/07/14 05:21:43;;;;;;;61.97;40.10;;;19.60;99.90;;;;;;5011410;28;20041;-82
2021/07/14 05:24:10;;;;;;;50.15;36.70;;;19.60;99.90;;;;;;5027011;28;20025;-83
2021/07/14 05:26:36;;;;;;;50.05;36.28;;;19.70;99.90;;;;;;5010582;28;20443;-82
2021/07/14 05:29:02;;;;;;;52.22;35.58;;;19.80;99.90;;;;;;5011741;28;20030;-82
2021/07/14 05:31:28;;;;;;;50.80;34.97;;;20.00;99.90;;;;;;5010337;28;20113;-83
2021/07/14 05:33:53;;;;;;;65.22;37.30;;;19.80;99.90;;;;;;5011769;28;20479;-82
2021/07/14 05:36:19;;;;;;;50.50;36.90;;;19.90;99.90;;;;;;5011533;28;20034;-82
2021/07/14 05:38:44;;;;;;;37.95;30.88;;;20.00;99.90;;;;;;5010847;28;20391;-82
2021/07/14 05:41:10;;;;;;;45.55;33.92;;;19.90;99.90;;;;;;5012090;28;20037;-82
2021/07/14 05:43:36;;;;;;;48.38;34.53;;;20.00;99.90;;;;;;5026710;28;20033;-83
2021/07/14 05:46:03;;;;;;;59.25;38.40;;;20.10;99.90;;;;;;5011567;28;20073;-82
2021/07/14 05:48:28;;;;;;;48.70;34.63;;;20.20;99.90;;;;;;5010235;28;20149;-84
2021/07/14 05:50:55;;;;;;;49.17;33.53;;;20.30;99.90;;;;;;5026597;28;20490;-83
2021/07/14 05:53:21;;;;;;;50.83;33.53;;;20.40;99.90;;;;;;5010148;28;20026;-83
2021/07/14 05:55:47;;;;;;;53.20;33.67;;;20.50;99.90;;;;;;5011494;28;20092;-82
2021/07/14 05:58:13;;;;;;;46.65;37.70;;;20.40;99.90;;;;;;5011547;28;20468;-84
2021/07/14 06:00:39;;;;;;;51.13;41.13;;;20.50;99.90;;;;;;5008998;28;20026;-89
2021/07/14 06:03:05;;;;;;;42.33;34.60;;;20.60;99.90;;;;;;5011202;28;20660;-83
2021/07/14 06:05:32;;;;;;;46.00;31.35;;;20.60;99.90;;;;;;5009751;28;20030;-82
2021/07/14 06:07:57;;;;;;;48.97;29.88;;;20.70;99.90;;;;;;5010037;28;20057;-83
2021/07/14 06:10:23;;;;;;;32.42;24.50;;;20.80;99.90;;;;;;5010652;28;20064;-82
2021/07/14 06:12:50;;;;;;;30.48;24.67;;;20.60;99.90;;;;;;5014604;28;20053;-83
2021/07/14 06:15:16;;;;;;;33.83;27.15;;;20.80;99.90;;;;;;5013412;28;20402;-82
2021/07/14 06:17:41;;;;;;;40.33;27.83;;;21.00;99.90;;;;;;5013455;28;20026;-82
2021/07/14 06:20:07;;;;;;;41.92;29.98;;;21.10;99.90;;;;;;5013471;28;20040;-84
2021/07/14 06:22:33;;;;;;;40.45;30.17;;;21.00;99.90;;;;;;5013122;28;20088;-84
2021/07/14 06:24:59;;;;;;;45.72;30.85;;;21.00;99.90;;;;;;5014660;28;20030;-83
2021/07/14 06:27:24;;;;;;;35.35;26.23;;;21.10;99.90;;;;;;5014630;28;20030;-83
2021/07/14 06:29:51;;;;;;;40.03;26.60;;;21.10;99.90;;;;;;5014450;28;20060;-82
2021/07/14 06:32:16;;;;;;;37.38;27.58;;;21.20;99.90;;;;;;5013117;28;20112;-83
2021/07/14 06:34:42;;;;;;;35.35;24.20;;;21.20;99.90;;;;;;5013056;28;20029;-82
2021/07/14 06:37:08;;;;;;;34.92;24.27;;;21.40;99.90;;;;;;5013314;28;20025;-83
2021/07/14 06:39:34;;;;;;;36.38;23.83;;;21.50;99.90;;;;;;5013135;28;20110;-82
2021/07/14 06:41:59;;;;;;;32.78;21.80;;;21.50;99.90;;;;;;5014287;28;20026;-82
2021/07/14 06:44:26;;;;;;;31.45;22.13;;;21.60;99.90;;;;;;5014474;28;20433;-83
2021/07/14 06:46:51;;;;;;;29.35;20.88;;;21.90;99.90;;;;;;5014635;28;20026;-82
2021/07/14 06:49:17;;;;;;;22.42;19.52;;;21.80;99.90;;;;;;5012888;28;20383;-83
2021/07/14 06:51:42;;;;;;;31.30;19.90;;;21.90;99.90;;;;;;5012722;28;20474;-82
2021/07/14 06:54:08;;;;;;;26.02;18.75;;;22.00;99.90;;;;;;5012987;28;20405;-83
2021/07/14 06:56:34;;;;;;;24.30;18.95;;;22.30;99.90;;;;;;5012859;28;20030;-83
2021/07/14 06:58:59;;;;;;;28.23;18.20;;;22.50;99.90;;;;;;5012812;28;20037;-82
2021/07/14 07:01:25;;;;;;;26.75;18.63;;;22.70;99.90;;;;;;5012471;28;20080;-82
2021/07/14 07:03:51;;;;;;;26.35;16.75;;;23.00;99.90;;;;;;5012808;28;20092;-81
2021/07/14 07:06:16;;;;;;;36.50;17.70;;;23.10;99.90;;;;;;5013772;28;20401;-81
2021/07/14 07:08:42;;;;;;;22.50;15.45;;;23.10;99.90;;;;;;5014363;28;20038;-81
2021/07/14 07:11:08;;;;;;;21.25;15.73;;;23.40;99.90;;;;;;5013260;28;20161;-81
2021/07/14 07:13:33;;;;;;;23.08;13.20;;;23.50;99.90;;;;;;5013735;28;20057;-81
2021/07/14 07:16:01;;;;;;;26.90;14.15;;;23.60;99.90;;;;;;5013606;28;20033;-81
2021/07/14 07:18:27;;;;;;;21.00;12.82;;;23.70;99.90;;;;;;5014023;28;20388;-81
2021/07/14 07:20:54;;;;;;;20.33;13.27;;;23.80;99.90;;;;;;5013518;28;20026;-80
2021/07/14 07:23:20;;;;;;;15.55;13.95;;;23.90;99.90;;;;;;5012912;28;20072;-83
2021/07/14 07:25:45;;;;;;;17.88;12.40;;;23.80;99.90;;;;;;5013325;28;20030;-81
2021/07/14 07:28:14;;;;;;;22.00;12.15;;;23.90;99.90;;;;;;5013642;28;20030;-81
2021/07/14 07:30:40;;;;;;;21.52;13.10;;;23.90;99.90;;;;;;5013432;28;20041;-80
2021/07/14 07:33:06;;;;;;;18.67;14.20;;;23.90;99.90;;;;;;5013288;28;20105;-81
2021/07/14 07:35:31;;;;;;;15.98;13.23;;;23.90;99.90;;;;;;5013272;28;20062;-81
2021/07/14 07:37:57;;;;;;;17.10;12.57;;;23.80;99.90;;;;;;5013376;28;20029;-82
2021/07/14 07:40:23;;;;;;;21.58;13.23;;;23.70;99.90;;;;;;5013275;28;20022;-81
2021/07/14 07:42:49;;;;;;;18.38;13.35;;;23.60;99.90;;;;;;5013073;28;20046;-80
2021/07/14 07:45:14;;;;;;;21.02;14.63;;;23.50;99.90;;;;;;5013468;28;20018;-81
2021/07/14 07:47:40;;;;;;;15.10;13.45;;;23.50;99.90;;;;;;5013142;28;20037;-84
2021/07/14 07:50:07;;;;;;;18.45;12.10;;;23.40;99.90;;;;;;5010555;28;20026;-82
2021/07/14 07:52:32;;;;;;;17.35;12.20;;;23.40;99.90;;;;;;5001273;28;20036;-82
2021/07/14 07:55:00;;;;;;;16.10;12.45;;;23.50;99.90;;;;;;5012907;28;20022;-87
2021/07/14 07:57:27;;;;;;;19.88;12.55;;;23.70;99.90;;;;;;4992304;28;20026;-84
2021/07/14 07:59:52;;;;;;;20.80;13.73;;;23.60;99.90;;;;;;5005793;28;20027;-84
2021/07/14 08:02:18;;;;;;;14.13;12.10;;;23.60;99.90;;;;;;5008159;28;20027;-86
2021/07/14 08:04:43;;;;;;;24.65;11.63;;;23.60;99.90;;;;;;4993373;28;20119;-87
2021/07/14 08:07:09;;;;;;;17.45;11.93;;;23.60;99.90;;;;;;4993565;28;20027;-83
2021/07/14 08:09:35;;;;;;;17.50;11.60;;;23.70;99.90;;;;;;4991553;28;20057;-81
2021/07/14 08:12:01;;;;;;;14.20;11.15;;;23.80;99.90;;;;;;5012007;28;20034;-84
2021/07/14 08:14:27;;;;;;;19.20;10.85;;;23.80;99.90;;;;;;5007977;28;20036;-84
2021/07/14 08:16:52;;;;;;;11.68;10.32;;;23.80;99.90;;;;;;5018309;28;20044;-83
2021/07/14 08:19:18;;;;;;;13.23;11.30;;;23.80;99.90;;;;;;5020711;28;20109;-83
2021/07/14 08:21:44;;;;;;;17.00;12.15;;;24.00;99.90;;;;;;5017502;28;20035;-82
2021/07/14 08:24:09;;;;;;;18.63;12.45;;;24.10;99.90;;;;;;5027234;28;20032;-82
2021/07/14 08:26:35;;;;;;;16.75;12.73;;;24.10;99.90;;;;;;5010139;28;20036;-81
2021/07/14 08:29:01;;;;;;;11.98;10.77;;;24.30;99.90;;;;;;5008667;28;20029;-81
2021/07/14 08:31:26;;;;;;;14.18;12.45;;;24.40;99.90;;;;;;5004126;28;20395;-82
2021/07/14 08:33:52;;;;;;;16.85;12.05;;;24.50;99.90;;;;;;5023460;28;20184;-81
2021/07/14 08:36:17;;;;;;;11.73;10.35;;;24.50;99.90;;;;;;5014805;28;20500;-81
2021/07/14 08:38:43;;;;;;;15.02;12.80;;;24.50;99.90;;;;;;5012418;28;20030;-81
2021/07/14 08:41:14;;;;;;;19.33;12.90;;;24.80;99.90;;;;;;5011031;28;20034;-81
2021/07/14 08:43:43;;;;;;;27.80;12.73;;;24.80;99.90;;;;;;5027317;28;20399;-82
2021/07/14 08:46:10;;;;;;;18.05;13.52;;;24.80;99.90;;;;;;5027438;28;20116;-81
2021/07/14 08:48:36;;;;;;;13.32;11.38;;;24.80;99.90;;;;;;5012070;28;20032;-81
2021/07/14 08:51:03;;;;;;;17.40;10.88;;;24.90;99.90;;;;;;5007443;28;20030;-81
2021/07/14 08:53:29;;;;;;;14.25;11.00;;;25.10;99.90;;;;;;4992458;28;20031;-81
2021/07/14 08:55:56;;;;;;;11.85;10.40;;;25.20;99.90;;;;;;5007390;28;20483;-82
2021/07/14 08:58:24;;;;;;;16.58;11.75;;;25.30;99.90;;;;;;4992523;28;20028;-80
2021/07/14 09:00:52;;;;;;;16.70;11.52;;;25.30;99.90;;;;;;5007620;28;20023;-80
2021/07/14 09:03:18;;;;;;;16.45;12.35;;;25.20;99.90;;;;;;4992675;28;20054;-81
2021/07/14 09:05:44;;;;;;;21.52;12.75;;;25.20;99.90;;;;;;4992433;28;20027;-83
2021/07/14 09:08:10;;;;;;;18.92;13.95;;;25.10;99.90;;;;;;4991243;28;20030;-83
2021/07/14 09:10:36;;;;;;;16.60;13.90;;;25.10;99.90;;;;;;4991861;28;20021;-82
2021/07/14 09:13:02;;;;;;;20.25;15.45;;;25.10;99.90;;;;;;4992123;28;20022;-82
2021/07/14 09:15:37;;;;;;;18.23;14.60;;;25.20;99.90;;;;;;4990907;28;20158;-82
2021/07/14 09:18:03;;;;;;;16.70;12.32;;;25.30;99.90;;;;;;4992189;28;20037;-83
2021/07/14 09:20:33;;;;;;;13.85;10.75;;;25.20;99.90;;;;;;4992404;28;20109;-82
2021/07/14 09:23:10;;;;;;;18.77;11.02;;;25.20;99.90;;;;;;5002080;28;20026;-84
2021/07/14 09:26:00;;;;;;;11.95;10.10;;;25.20;99.90;;;;;;5010423;28;20386;-84
2021/07/14 09:28:32;;;;;;;15.98;10.07;;;25.20;99.90;;;;;;5011891;28;20105;-83
2021/07/14 09:31:09;;;;;;;16.63;10.98;;;25.20;99.90;;;;;;5011845;28;20147;-82
2021/07/14 09:33:36;;;;;;;12.90;10.32;;;25.20;99.90;;;;;;5010118;28;20032;-84
2021/07/14 09:36:01;;;;;;;11.55;9.63;;;25.30;99.90;;;;;;5010142;28;20462;-83
2021/07/14 09:38:30;;;;;;;11.00;9.52;;;25.40;99.90;;;;;;5026949;28;20050;-83
2021/07/14 09:40:59;;;;;;;12.55;10.27;;;25.50;99.90;;;;;;5011763;28;20025;-84
2021/07/14 09:43:52;;;;;;;18.63;9.32;;;25.70;99.90;;;;;;5001353;28;20394;-83
2021/07/14 09:46:19;;;;;;;23.95;10.48;;;25.90;99.90;;;;;;4991975;28;20581;-84
2021/07/14 09:48:49;;;;;;;26.10;9.60;;;26.00;99.90;;;;;;4995830;28;20037;-85
2021/07/14 09:51:23;;;;;;;11.73;8.93;;;26.20;99.90;;;;;;5010802;28;20030;-87
2021/07/14 09:53:51;;;;;;;11.52;8.68;;;26.20;99.90;;;;;;5001195;28;20033;-84
2021/07/14 09:56:22;;;;;;;14.80;8.20;;;26.20;99.90;;;;;;5015264;28;20490;-84
2021/07/14 09:59:01;;;;;;;18.30;8.88;;;26.10;99.90;;;;;;5015408;28;20022;-84
2021/07/14 10:01:45;;;;;;;10.95;8.32;;;26.20;99.90;;;;;;5030171;28;20552;-86
2021/07/14 10:04:19;;;;;;;12.20;8.48;;;26.10;99.90;;;;;;5005013;28;20031;-81
2021/07/14 10:06:45;;;;;;;20.38;7.97;;;26.20;99.90;;;;;;5008377;28;20033;-83
2021/07/14 10:09:10;;;;;;;13.95;8.25;;;26.50;99.90;;;;;;5014253;28;20018;-84
2021/07/14 10:11:36;;;;;;;13.55;8.75;;;26.70;99.90;;;;;;5004361;28;20033;-82
2021/07/14 10:14:07;;;;;;;16.35;8.50;;;27.00;99.90;;;;;;5009062;28;20068;-83
2021/07/14 10:16:39;;;;;;;12.02;7.35;;;27.90;99.90;;;;;;5023544;28;20068;-84
2021/07/14 10:19:09;;;;;;;9.32;6.88;;;28.60;99.90;;;;;;5014879;28;20018;-84
2021/07/14 10:21:42;;;;;;;16.02;6.72;;;29.10;99.90;;;;;;5014730;28;20030;-84
2021/07/14 10:24:10;;;;;;;8.57;6.72;;;29.50;99.90;;;;;;5027093;28;20030;-83
2021/07/14 10:26:39;;;;;;;7.75;6.50;;;29.30;99.90;;;;;;4995275;28;20045;-83
2021/07/14 10:29:06;;;;;;;10.55;7.40;;;29.50;99.90;;;;;;5007728;28;20145;-85
2021/07/14 10:31:32;;;;;;;6.97;5.82;;;29.60;99.90;;;;;;5005307;28;20033;-83
2021/07/14 10:33:58;;;;;;;11.15;6.50;;;29.70;99.90;;;;;;5028032;28;20491;-87
2021/07/14 10:36:32;;;;;;;7.90;6.53;;;29.70;99.90;;;;;;5012945;28;20445;-87
2021/07/14 10:39:05;;;;;;;8.10;6.35;;;29.90;99.90;;;;;;5011075;28;20029;-86
2021/07/14 10:41:31;;;;;;;8.13;6.57;;;29.90;99.90;;;;;;5011668;28;20018;-85
2021/07/14 10:43:58;;;;;;;12.20;6.90;;;30.00;99.90;;;;;;5019912;28;20029;-86
2021/07/14 10:46:28;;;;;;;26.42;7.00;;;30.00;99.90;;;;;;5013182;28;20045;-85
2021/07/14 10:48:55;;;;;;;9.80;6.07;;;30.20;99.90;;;;;;5018542;28;20032;-85
2021/07/14 10:51:22;;;;;;;9.73;6.35;;;30.10;99.90;;;;;;5019399;28;20036;-87
2021/07/14 10:53:51;;;;;;;12.45;7.15;;;30.40;99.90;;;;;;5012004;28;20030;-86
2021/07/14 10:56:18;;;;;;;7.40;5.82;;;30.60;99.90;;;;;;5014175;28;20029;-85
2021/07/14 10:58:46;;;;;;;10.25;5.10;;;30.80;99.90;;;;;;5008960;28;20049;-85
2021/07/14 11:01:11;;;;;;;9.38;5.45;;;30.90;99.90;;;;;;5030292;28;20524;-82
2021/07/14 11:03:44;;;;;;;9.40;6.25;;;31.00;99.90;;;;;;5033766;28;20049;-83
2021/07/14 11:06:12;;;;;;;9.50;6.18;;;31.00;99.90;;;;;;5027867;28;20474;-84
2021/07/14 11:08:48;;;;;;;16.13;6.13;;;31.10;99.90;;;;;;5013888;28;20029;-85
2021/07/14 11:11:19;;;;;;;13.02;5.72;;;30.90;99.90;;;;;;4995744;28;20104;-83
2021/07/14 11:14:05;;;;;;;11.55;5.25;;;31.00;99.90;;;;;;4994305;28;20031;-83
2021/07/14 11:16:36;;;;;;;15.90;5.78;;;31.20;99.90;;;;;;5014248;28;20104;-83
2021/07/14 11:19:09;;;;;;;6.57;5.40;;;31.10;99.90;;;;;;5013847;28;20014;-82
2021/07/14 11:21:57;;;;;;;10.60;5.40;;;31.10;99.90;;;;;;5013539;28;20482;-85
2021/07/14 11:24:48;;;;;;;17.48;5.88;;;31.20;99.90;;;;;;5013707;28;20030;-82
2021/07/14 11:27:22;;;;;;;10.20;5.40;;;31.10;99.90;;;;;;5005654;28;20130;-83
2021/07/14 11:30:04;;;;;;;14.52;5.18;;;31.30;99.90;;;;;;5008982;28;20536;-84
2021/07/14 11:32:35;;;;;;;7.72;5.47;;;31.50;99.90;;;;;;4993776;28;20065;-83
2021/07/14 11:35:04;;;;;;;7.45;5.25;;;31.40;99.90;;;;;;5009012;28;20022;-82
2021/07/14 11:37:37;;;;;;;9.95;5.25;;;31.70;99.90;;;;;;5000725;28;20080;-84
2021/07/14 11:40:18;;;;;;;5.10;4.15;;;31.80;99.90;;;;;;5013371;28;20017;-84
2021/07/14 11:42:56;;;;;;;10.75;5.18;;;31.90;99.90;;;;;;5028281;28;20045;-84
2021/07/14 11:45:33;;;;;;;27.63;6.65;;;31.80;99.90;;;;;;5013422;28;20055;-85
2021/07/14 11:48:04;;;;;;;15.63;5.55;;;31.90;99.90;;;;;;5028182;28;20029;-84
2021/07/14 11:50:42;;;;;;;5.22;4.72;;;31.90;99.90;;;;;;5024901;28;20037;-82
2021/07/14 11:53:31;;;;;;;5.22;4.70;;;31.90;99.90;;;;;;4993293;28;20035;-86
2021/07/14 11:56:05;;;;;;;9.80;4.57;;;31.50;99.90;;;;;;5011756;28;20060;-85
2021/07/14 11:58:43;;;;;;;5.97;5.15;;;31.60;99.90;;;;;;5013155;28;20029;-83
2021/07/14 12:01:10;;;;;;;13.23;4.78;;;31.70;99.90;;;;;;5028007;28;20053;-84
2021/07/14 12:03:35;;;;;;;8.30;5.32;;;32.00;99.90;;;;;;5012914;28;20029;-84
2021/07/14 12:06:01;;;;;;;8.32;5.60;;;32.40;99.90;;;;;;5011432;28;20031;-87
2021/07/14 12:08:37;;;;;;;6.63;5.70;;;32.80;99.90;;;;;;4991623;28;20026;-83
2021/07/14 12:11:03;;;;;;;11.80;5.85;;;32.90;99.90;;;;;;5008998;28;20406;-84
2021/07/14 12:13:28;;;;;;;9.35;5.82;;;33.00;99.90;;;;;;5005618;28;20029;-84
2021/07/14 12:15:54;;;;;;;13.77;6.20;;;33.40;99.90;;;;;;5017541;28;20452;-86
2021/07/14 12:18:20;;;;;;;9.98;5.75;;;33.50;99.90;;;;;;5010202;28;20030;-84
2021/07/14 12:20:51;;;;;;;13.40;6.05;;;33.50;99.90;;;;;;5009393;28;20026;-86
2021/07/14 12:23:19;;;;;;;8.32;5.78;;;33.80;99.90;;;;;;5008983;28;20141;-85
2021/07/14 12:25:44;;;;;;;8.30;5.82;;;34.10;99.90;;;;;;5018755;28;20044;-86
2021/07/14 12:28:12;;;;;;;9.35;5.22;;;34.40;99.90;;;;;;5019903;28;20025;-83
2021/07/14 12:30:43;;;;;;;7.35;5.50;;;34.60;99.90;;;;;;5019337;28;20030;-84
2021/07/14 12:33:11;;;;;;;5.78;5.00;;;34.70;99.90;;;;;;5005025;28;20491;-83
2021/07/14 12:35:40;;;;;;;6.75;5.70;;;34.70;99.90;;;;;;4991983;28;20028;-84
2021/07/14 12:38:11;;;;;;;11.40;5.78;;;34.70;99.90;;;;;;4992888;28;20157;-85
2021/07/14 12:40:46;;;;;;;9.05;5.50;;;35.00;99.90;;;;;;5000098;28;20101;-85
2021/07/14 12:43:21;;;;;;;6.03;5.38;;;35.10;99.90;;;;;;5012193;28;20022;-87